createdAt,value
2019-02-11T00:02:08.930Z,74.24
2019-02-11T00:04:39.451Z,74.94
2019-02-11T00:07:10.408Z,74.30
2019-02-11T00:09:40.854Z,73.65
2019-02-11T00:12:11.269Z,73.92
2019-02-11T00:14:41.992Z,72.36
2019-02-11T00:17:12.339Z,72.72
2019-02-11T00:19:42.678Z,73.52
2019-02-11T00:22:13.417Z,72.80
2019-02-11T00:24:44.175Z,72.80
2019-02-11T00:27:14.777Z,73.53
2019-02-11T00:29:46.211Z,73.73
2019-02-11T00:32:16.814Z,73.24
2019-02-11T00:34:47.388Z,74.52
2019-02-11T00:37:17.665Z,75.95
2019-02-11T00:39:48.416Z,75.39
2019-02-11T00:42:19.093Z,76.03
2019-02-11T00:44:49.717Z,76.75
2019-02-11T00:47:20.036Z,75.85
2019-02-11T00:49:50.882Z,76.78
2019-02-11T00:52:21.507Z,77.97
2019-02-11T00:54:51.935Z,77.41
2019-02-11T00:57:22.977Z,76.99
2019-02-11T00:59:53.316Z,76.23
2019-02-11T01:02:23.731Z,77.13
2019-02-11T01:04:54.135Z,77.95
2019-02-11T01:07:24.538Z,78.53
2019-02-11T01:09:55.372Z,78.58
2019-02-11T01:12:26.040Z,77.27
2019-02-11T01:14:56.442Z,77.48
2019-02-11T01:17:26.913Z,76.73
2019-02-11T01:19:57.667Z,75.64
2019-02-11T01:22:28.051Z,75.35
2019-02-11T01:24:58.791Z,74.71
2019-02-11T01:27:29.475Z,74.63
2019-02-11T01:29:59.786Z,73.86
2019-02-11T01:32:30.159Z,74.15
2019-02-11T01:35:00.516Z,73.44
2019-02-11T01:37:31.146Z,73.82
2019-02-11T01:40:01.942Z,74.06
2019-02-11T01:42:32.395Z,73.96
2019-02-11T01:45:03.122Z,73.19
2019-02-11T01:47:33.886Z,76.16
2019-02-11T01:50:04.559Z,74.87
2019-02-11T01:52:34.943Z,73.83
2019-02-11T01:55:05.975Z,74.38
2019-02-11T01:57:36.374Z,73.82
2019-02-11T02:00:09.275Z,75.31
2019-02-11T02:02:39.634Z,75.17
2019-02-11T02:05:10.393Z,75.59
2019-02-11T02:07:41.078Z,73.79
2019-02-11T02:10:13.590Z,74.64
2019-02-11T02:12:43.979Z,74.61
2019-02-11T02:15:15.346Z,75.53
2019-02-11T02:17:45.633Z,74.46
2019-02-11T02:20:15.971Z,74.59
2019-02-11T02:22:46.519Z,73.60
2019-02-11T02:25:17.058Z,74.45
2019-02-11T02:27:47.360Z,75.93
2019-02-11T02:30:18.119Z,75.35
2019-02-11T02:32:48.518Z,76.72
2019-02-11T02:35:19.029Z,77.88
2019-02-11T02:37:49.341Z,77.49
2019-02-11T02:40:19.685Z,79.01
2019-02-11T02:42:50.261Z,78.68
2019-02-11T02:45:20.938Z,77.37
2019-02-11T02:47:51.263Z,75.68
2019-02-11T02:50:22.038Z,75.18
2019-02-11T02:52:52.764Z,75.30
2019-02-11T02:55:23.131Z,75.02
2019-02-11T02:57:53.761Z,76.81
2019-02-11T03:00:24.483Z,77.70
2019-02-11T03:02:54.757Z,76.69
2019-02-11T03:05:25.230Z,77.99
2019-02-11T03:07:55.552Z,79.41
2019-02-11T03:10:26.233Z,79.05
2019-02-11T03:12:56.956Z,79.44
2019-02-11T03:15:27.430Z,79.60
2019-02-11T03:17:58.187Z,78.92
2019-02-11T03:20:28.842Z,79.17
2019-02-11T03:22:59.191Z,78.24
2019-02-11T03:25:29.696Z,78.31
2019-02-11T03:28:00.071Z,79.29
2019-02-11T03:30:30.423Z,78.47
2019-02-11T03:33:00.726Z,78.00
2019-02-11T03:35:31.432Z,79.25
2019-02-11T03:38:01.713Z,80.13
2019-02-11T03:40:32.519Z,80.18
2019-02-11T03:43:03.170Z,80.77
2019-02-11T03:45:33.961Z,80.78
2019-02-11T03:48:04.565Z,78.94
2019-02-11T03:50:35.218Z,77.71
2019-02-11T03:53:06.136Z,78.51
2019-02-11T03:55:36.679Z,79.87
2019-02-11T03:58:07.484Z,81.00
2019-02-11T04:00:38.584Z,80.90
2019-02-11T04:03:08.962Z,80.10
2019-02-11T04:05:39.667Z,79.68
2019-02-11T04:08:10.483Z,79.18
2019-02-11T04:10:40.870Z,79.14
2019-02-11T04:13:11.471Z,78.80
2019-02-11T04:15:41.890Z,78.11
2019-02-11T04:18:12.653Z,76.95
2019-02-11T04:20:43.525Z,77.40
2019-02-11T04:23:13.820Z,77.72
2019-02-11T04:25:44.205Z,77.22
2019-02-11T04:28:14.578Z,77.13
2019-02-11T04:30:44.920Z,77.34
2019-02-11T04:33:15.223Z,79.15
2019-02-11T04:35:45.806Z,78.44
2019-02-11T04:38:16.099Z,76.31
2019-02-11T04:40:46.657Z,76.27
2019-02-11T04:43:17.371Z,76.55
2019-02-11T04:45:48.264Z,77.97
2019-02-11T04:48:19.230Z,79.82
2019-02-11T04:50:49.554Z,80.77
2019-02-11T04:53:19.855Z,81.54
2019-02-11T04:55:50.550Z,81.75
2019-02-11T04:58:20.868Z,81.39
2019-02-11T05:00:51.241Z,80.45
2019-02-11T05:03:21.786Z,79.65
2019-02-11T05:05:52.394Z,79.00
2019-02-11T05:08:22.685Z,78.97
2019-02-11T05:10:53.676Z,79.57
2019-02-11T05:13:24.312Z,80.51
2019-02-11T05:15:54.854Z,81.45
2019-02-11T05:18:25.113Z,80.57
2019-02-11T05:20:55.484Z,79.65
2019-02-11T05:23:26.027Z,78.62
2019-02-11T05:25:56.530Z,78.17
2019-02-11T05:28:26.791Z,77.04
2019-02-11T05:30:57.443Z,76.89
2019-02-11T05:33:28.126Z,77.49
2019-02-11T05:35:58.472Z,77.85
2019-02-11T05:38:28.829Z,78.17
2019-02-11T05:40:59.457Z,78.22
2019-02-11T05:43:29.791Z,78.29
2019-02-11T05:46:00.202Z,80.48
2019-02-11T05:48:30.503Z,79.87
2019-02-11T05:51:01.191Z,80.68
2019-02-11T05:53:31.557Z,80.37
2019-02-11T05:56:01.889Z,79.95
2019-02-11T05:58:32.325Z,79.51
2019-02-11T06:01:03.081Z,80.42
2019-02-11T06:03:33.536Z,81.80
2019-02-11T06:06:03.940Z,81.56
2019-02-11T06:08:34.748Z,80.37
2019-02-11T06:11:05.137Z,79.75
2019-02-11T06:13:35.549Z,79.40
2019-02-11T06:16:06.264Z,79.71
2019-02-11T06:18:36.627Z,79.34
2019-02-11T06:21:07.334Z,80.24
2019-02-11T06:23:37.650Z,79.74
2019-02-11T06:26:08.237Z,79.09
2019-02-11T06:28:38.874Z,78.91
2019-02-11T06:31:09.275Z,78.65
2019-02-11T06:33:39.584Z,77.74
2019-02-11T06:36:12.654Z,77.07
2019-02-11T06:38:42.390Z,76.61
2019-02-11T06:41:12.677Z,75.85
2019-02-11T06:43:43.326Z,75.52
2019-02-11T06:46:13.810Z,75.00
2019-02-11T06:48:44.163Z,73.71
2019-02-11T06:51:14.715Z,72.56
2019-02-11T06:53:45.990Z,70.66
2019-02-11T06:56:16.473Z,70.14
2019-02-11T06:58:46.780Z,69.85
2019-02-11T07:01:17.091Z,69.62
2019-02-11T07:03:47.774Z,69.48
2019-02-11T07:06:18.274Z,69.34
2019-02-11T07:08:49.516Z,67.88
2019-02-11T07:11:20.210Z,66.37
2019-02-11T07:13:50.767Z,66.33
2019-02-11T07:16:21.166Z,65.47
2019-02-11T07:18:51.683Z,65.51
2019-02-11T07:21:22.093Z,65.48
2019-02-11T07:23:53.401Z,65.25
2019-02-11T07:26:23.836Z,66.46
2019-02-11T07:28:54.247Z,66.75
2019-02-11T07:31:25.203Z,66.15
2019-02-11T07:33:55.825Z,65.60
2019-02-11T07:36:26.163Z,64.76
2019-02-11T07:38:56.728Z,63.93
2019-02-11T07:41:36.671Z,62.44
2019-02-11T07:44:28.669Z,60.86
2019-02-11T07:47:01.498Z,59.05
2019-02-11T07:49:31.894Z,59.04
2019-02-11T07:52:02.174Z,58.29
2019-02-11T07:54:32.734Z,57.33
2019-02-11T07:57:03.406Z,56.60
2019-02-11T07:59:33.817Z,55.99
2019-02-11T08:02:04.326Z,54.90
2019-02-11T08:04:34.997Z,54.01
2019-02-11T08:07:05.321Z,53.47
2019-02-11T08:09:35.606Z,51.52
2019-02-11T08:12:06.208Z,51.06
2019-02-11T08:14:36.660Z,51.14
2019-02-11T08:17:07.240Z,48.85
2019-02-11T08:19:37.861Z,49.23
2019-02-11T08:22:08.269Z,49.26
2019-02-11T08:24:38.640Z,48.98
2019-02-11T08:27:09.455Z,48.66
2019-02-11T08:29:39.744Z,47.24
2019-02-11T08:32:10.498Z,46.78
2019-02-11T08:34:41.016Z,47.71
2019-02-11T08:37:11.350Z,47.38
2019-02-11T08:39:41.901Z,46.94
2019-02-11T08:42:12.400Z,45.52
2019-02-11T08:44:42.698Z,44.92
2019-02-11T08:47:13.655Z,45.80
2019-02-11T08:49:44.355Z,45.95
2019-02-11T08:52:14.660Z,45.71
2019-02-11T08:54:45.195Z,44.84
2019-02-11T08:57:15.869Z,44.11
2019-02-11T08:59:46.173Z,44.13
2019-02-11T09:02:16.692Z,44.05
2019-02-11T09:04:47.123Z,43.91
2019-02-11T09:07:17.673Z,43.08
2019-02-11T09:09:48.759Z,41.91
2019-02-11T09:12:19.475Z,43.22
2019-02-11T09:14:49.981Z,41.90
2019-02-11T09:17:20.620Z,42.04
2019-02-11T09:19:50.908Z,42.38
2019-02-11T09:22:21.232Z,42.68
2019-02-11T09:24:51.864Z,42.00
2019-02-11T09:27:22.187Z,42.67
2019-02-11T09:29:52.501Z,43.04
2019-02-11T09:32:23.163Z,41.71
2019-02-11T09:34:53.573Z,41.28
2019-02-11T09:37:24.333Z,40.64
2019-02-11T09:39:54.602Z,39.90
2019-02-11T09:42:25.327Z,40.72
2019-02-11T09:44:56.040Z,39.25
2019-02-11T09:47:26.400Z,39.11
2019-02-11T09:50:23.011Z,39.74
2019-02-11T09:52:53.983Z,39.32
2019-02-11T09:55:26.651Z,38.82
2019-02-11T09:57:56.979Z,39.25
2019-02-11T10:00:28.075Z,39.19
2019-02-11T10:02:58.708Z,40.01
2019-02-11T10:05:28.986Z,40.64
2019-02-11T10:07:59.576Z,40.87
2019-02-11T10:10:30.263Z,40.20
2019-02-11T10:13:00.585Z,40.36
2019-02-11T10:15:31.128Z,40.01
2019-02-11T10:18:01.840Z,38.87
2019-02-11T10:20:32.228Z,39.67
2019-02-11T10:23:02.929Z,39.80
2019-02-11T10:25:33.552Z,39.35
2019-02-11T10:28:07.163Z,39.81
2019-02-11T10:30:37.529Z,40.05
2019-02-11T10:33:08.864Z,40.14
2019-02-11T10:35:42.211Z,40.25
2019-02-11T10:38:13.207Z,39.84
2019-02-11T10:40:43.475Z,40.72
2019-02-11T10:43:13.815Z,40.44
2019-02-11T10:45:44.443Z,39.85
2019-02-11T10:48:14.824Z,40.15
2019-02-11T10:50:45.100Z,39.13
2019-02-11T10:53:15.759Z,39.32
2019-02-11T10:55:46.314Z,40.42
2019-02-11T10:58:16.737Z,40.55
2019-02-11T11:00:47.551Z,40.73
2019-02-11T11:03:18.422Z,40.08
2019-02-11T11:05:48.815Z,40.88
2019-02-11T11:08:19.568Z,40.73
2019-02-11T11:10:49.845Z,41.52
2019-02-11T11:13:20.623Z,41.86
2019-02-11T11:15:50.935Z,42.20
2019-02-11T11:18:21.371Z,42.99
2019-02-11T11:20:52.071Z,43.38
2019-02-11T11:23:22.620Z,44.20
2019-02-11T11:25:52.911Z,44.51
2019-02-11T11:28:23.599Z,44.97
2019-02-11T11:30:55.112Z,44.07
2019-02-11T11:33:25.455Z,43.38
2019-02-11T11:35:56.037Z,44.49
2019-02-11T11:38:26.867Z,45.28
2019-02-11T11:40:57.306Z,45.23
2019-02-11T11:43:28.102Z,44.57
2019-02-11T11:45:58.380Z,45.26
2019-02-11T11:48:28.839Z,43.99
2019-02-11T11:50:59.466Z,45.55
2019-02-11T11:53:29.781Z,45.55
2019-02-11T11:56:02.330Z,45.15
2019-02-11T11:58:33.063Z,45.22
2019-02-11T12:01:03.534Z,45.81
2019-02-11T12:03:34.127Z,45.53
2019-02-11T12:06:04.933Z,45.02
2019-02-11T12:08:35.480Z,44.60
2019-02-11T12:11:06.912Z,44.68
2019-02-11T12:13:37.653Z,45.50
2019-02-11T12:16:08.237Z,45.52
2019-02-11T12:18:38.531Z,44.54
2019-02-11T12:21:09.226Z,44.49
2019-02-11T12:23:39.820Z,45.02
2019-02-11T12:26:11.255Z,44.77
2019-02-11T12:28:43.139Z,44.26
2019-02-11T12:31:13.575Z,45.32
2019-02-11T12:33:43.889Z,45.48
2019-02-11T12:36:14.341Z,44.22
2019-02-11T12:38:45.145Z,44.42
2019-02-11T12:41:16.517Z,43.07
2019-02-11T12:43:47.023Z,43.01
2019-02-11T12:46:17.517Z,43.19
2019-02-11T12:48:48.240Z,42.59
2019-02-11T12:51:18.837Z,43.10
2019-02-11T12:53:49.266Z,42.43
2019-02-11T12:56:19.807Z,40.73
2019-02-11T12:58:50.461Z,41.40
2019-02-11T13:01:20.722Z,42.45
2019-02-11T13:03:51.259Z,41.99
2019-02-11T13:06:21.943Z,42.30
2019-02-11T13:08:52.361Z,43.13
2019-02-11T13:11:22.719Z,41.93
2019-02-11T13:13:53.446Z,41.36
2019-02-11T13:16:23.828Z,42.66
2019-02-11T13:18:54.585Z,42.19
2019-02-11T13:21:24.964Z,40.93
2019-02-11T13:23:56.364Z,40.08
2019-02-11T13:26:26.976Z,40.31
2019-02-11T13:28:57.402Z,41.88
2019-02-11T13:31:27.734Z,40.35
2019-02-11T13:33:58.553Z,39.48
2019-02-11T13:36:29.050Z,39.78
2019-02-11T13:38:59.594Z,42.00
2019-02-11T13:41:30.349Z,40.90
2019-02-11T13:44:01.053Z,40.52
2019-02-11T13:46:31.444Z,41.01
2019-02-11T13:49:02.036Z,41.40
2019-02-11T13:51:32.437Z,39.49
2019-02-11T13:54:03.255Z,40.68
2019-02-11T13:56:33.833Z,41.25
2019-02-11T13:59:04.130Z,40.05
2019-02-11T14:01:34.805Z,39.47
2019-02-11T14:04:05.373Z,39.17
2019-02-11T14:06:35.759Z,39.14
2019-02-11T14:09:10.495Z,39.38
2019-02-11T14:11:41.076Z,38.59
2019-02-11T14:14:11.603Z,38.77
2019-02-11T14:16:43.165Z,39.26
2019-02-11T14:19:14.938Z,39.49
2019-02-11T14:21:45.250Z,38.80
2019-02-11T14:24:15.945Z,37.89
2019-02-11T14:26:46.245Z,38.04
2019-02-11T14:29:17.048Z,39.32
2019-02-11T14:31:47.740Z,39.67
2019-02-11T14:34:18.117Z,40.57
2019-02-11T14:36:48.631Z,39.92
2019-02-11T14:39:19.399Z,40.85
2019-02-11T14:41:49.889Z,39.92
2019-02-11T14:44:20.440Z,40.31
2019-02-11T14:46:51.123Z,38.27
2019-02-11T14:49:21.836Z,40.20
2019-02-11T14:51:52.445Z,38.71
2019-02-11T14:54:23.482Z,37.62
2019-02-11T14:56:53.936Z,38.01
2019-02-11T14:59:24.751Z,38.26
2019-02-11T15:01:55.139Z,38.06
2019-02-11T15:04:25.554Z,38.48
2019-02-11T15:06:56.179Z,38.64
2019-02-11T15:09:26.574Z,38.71
2019-02-11T15:11:56.873Z,39.07
2019-02-11T15:14:27.627Z,39.46
2019-02-11T15:16:58.122Z,39.22
2019-02-11T15:19:28.685Z,39.34
2019-02-11T15:21:59.907Z,39.65
2019-02-11T15:24:30.608Z,40.27
2019-02-11T15:27:01.012Z,40.86
2019-02-11T15:29:31.652Z,42.76
2019-02-11T15:32:01.925Z,42.89
2019-02-11T15:34:32.547Z,40.50
2019-02-11T15:37:03.090Z,39.51
2019-02-11T15:39:33.497Z,42.18
2019-02-11T15:42:04.286Z,43.07
2019-02-11T15:44:35.000Z,43.55
2019-02-11T15:47:06.306Z,43.43
2019-02-11T15:49:37.259Z,43.30
2019-02-11T15:52:07.978Z,43.58
2019-02-11T15:54:38.315Z,43.62
2019-02-11T15:57:08.690Z,41.75
2019-02-11T15:59:39.017Z,40.31
2019-02-11T16:02:09.547Z,41.31
2019-02-11T16:04:40.213Z,41.50
2019-02-11T16:10:08.693Z,41.47
2019-02-11T16:12:39.366Z,39.68
2019-02-11T16:15:10.385Z,39.79
2019-02-11T16:17:40.678Z,40.62
2019-02-11T16:20:11.923Z,39.24
2019-02-11T16:22:42.791Z,39.12
2019-02-11T16:25:13.705Z,40.03
2019-02-11T16:27:43.975Z,40.21
2019-02-11T16:30:16.313Z,40.57
2019-02-11T16:32:46.613Z,40.81
2019-02-11T16:35:17.112Z,41.04
2019-02-11T16:37:47.761Z,41.35
2019-02-11T16:40:23.124Z,40.86
2019-02-11T16:42:53.405Z,40.33
2019-02-11T16:45:24.113Z,40.43
2019-02-11T16:47:54.697Z,40.04
2019-02-11T16:50:25.090Z,41.56
2019-02-11T16:52:55.763Z,40.21
2019-02-11T16:55:26.606Z,39.89
2019-02-11T16:57:56.948Z,39.79
2019-02-11T17:00:27.422Z,39.69
2019-02-11T17:02:58.075Z,39.43
2019-02-11T17:05:28.492Z,40.41
2019-02-11T17:07:59.110Z,42.73
2019-02-11T17:10:29.572Z,42.08
2019-02-11T17:12:59.963Z,42.94
2019-02-11T17:15:30.660Z,43.66
2019-02-11T17:18:01.037Z,44.06
2019-02-11T17:20:31.680Z,44.95
2019-02-11T17:23:02.253Z,45.06
2019-02-11T17:25:32.638Z,45.02
2019-02-11T17:28:03.077Z,45.85
2019-02-11T17:30:33.733Z,46.38
2019-02-11T17:33:04.028Z,47.27
2019-02-11T17:35:34.470Z,47.12
2019-02-11T17:38:05.206Z,45.88
2019-02-11T17:40:35.751Z,45.92
2019-02-11T17:43:06.561Z,45.51
2019-02-11T17:45:36.898Z,45.94
2019-02-11T17:48:07.187Z,46.45
2019-02-11T17:50:37.864Z,47.94
2019-02-11T17:53:09.045Z,47.23
2019-02-11T17:55:39.655Z,46.31
2019-02-11T17:58:10.231Z,46.04
2019-02-11T18:00:46.641Z,45.87
2019-02-11T18:03:16.921Z,46.12
2019-02-11T18:05:47.605Z,45.55
2019-02-11T18:08:18.284Z,46.06
2019-02-11T18:10:48.814Z,46.24
2019-02-11T18:13:19.092Z,45.87
2019-02-11T18:15:50.653Z,44.61
2019-02-11T18:18:21.326Z,44.93
2019-02-11T18:20:51.869Z,45.35
2019-02-11T18:23:22.250Z,47.13
2019-02-11T18:25:53.118Z,47.63
2019-02-11T18:28:23.864Z,48.68
2019-02-11T18:30:54.190Z,49.22
2019-02-11T18:33:24.844Z,48.29
2019-02-11T18:35:56.658Z,48.20
2019-02-11T18:38:26.936Z,46.95
2019-02-11T18:40:57.299Z,47.39
2019-02-11T18:43:27.697Z,47.04
2019-02-11T18:45:58.241Z,47.31
2019-02-11T18:48:28.819Z,47.22
2019-02-11T18:50:59.427Z,47.33
2019-02-11T18:53:30.183Z,47.79
2019-02-11T18:56:00.860Z,48.08
2019-02-11T18:58:31.334Z,48.13
2019-02-11T19:01:01.954Z,47.63
2019-02-11T19:03:32.619Z,48.04
2019-02-11T19:06:02.924Z,50.67
2019-02-11T19:08:33.200Z,49.28
2019-02-11T19:11:03.598Z,50.77
2019-02-11T19:13:33.868Z,50.57
2019-02-11T19:16:04.586Z,51.34
2019-02-11T19:18:34.856Z,51.14
2019-02-11T19:21:05.325Z,50.06
2019-02-11T19:23:35.825Z,51.20
2019-02-11T19:26:07.138Z,52.72
2019-02-11T19:28:37.432Z,51.19
2019-02-11T19:31:07.891Z,52.68
2019-02-11T19:33:38.174Z,51.66
2019-02-11T19:36:08.493Z,49.97
2019-02-11T19:38:39.124Z,50.11
2019-02-11T19:41:09.565Z,50.38
2019-02-11T19:43:40.161Z,52.38
2019-02-11T19:46:10.606Z,52.52
2019-02-11T19:48:41.893Z,53.13
2019-02-11T19:51:12.691Z,51.44
2019-02-11T19:53:43.106Z,52.58
2019-02-11T19:56:13.527Z,52.30
2019-02-11T19:58:44.274Z,53.55
2019-02-11T20:01:14.755Z,52.47
2019-02-11T20:03:45.080Z,53.79
2019-02-11T20:06:15.662Z,53.10
2019-02-11T20:08:46.065Z,53.84
2019-02-11T20:11:16.458Z,52.99
2019-02-11T20:13:47.091Z,54.29
2019-02-11T20:16:17.879Z,53.89
2019-02-11T20:18:48.490Z,55.11
2019-02-11T20:21:18.898Z,54.08
2019-02-11T20:23:50.284Z,54.18
2019-02-11T20:26:21.187Z,54.23
2019-02-11T20:28:51.861Z,54.53
2019-02-11T20:31:22.187Z,55.22
2019-02-11T20:33:52.836Z,55.06
2019-02-11T20:36:23.246Z,56.64
2019-02-11T20:38:53.515Z,56.69
2019-02-11T20:41:24.182Z,56.31
2019-02-11T20:43:54.841Z,58.13
2019-02-11T20:46:25.167Z,58.14
2019-02-11T20:48:55.454Z,59.17
2019-02-11T20:51:26.291Z,60.44
2019-02-11T20:53:56.578Z,63.27
2019-02-11T20:56:27.071Z,63.50
2019-02-11T20:58:57.715Z,66.72
2019-02-11T21:01:28.201Z,67.98
2019-02-11T21:03:58.501Z,69.11
2019-02-11T21:06:28.881Z,75.74
2019-02-11T21:08:59.273Z,78.33
2019-02-11T21:11:29.545Z,77.76
2019-02-11T21:14:00.257Z,79.79
2019-02-11T21:16:30.811Z,80.04
2019-02-11T21:19:01.125Z,79.77
2019-02-11T21:21:31.634Z,80.03
2019-02-11T21:24:02.173Z,81.97
2019-02-11T21:26:32.926Z,81.61
2019-02-11T21:29:03.693Z,81.09
2019-02-11T21:31:36.909Z,82.33
2019-02-11T21:34:07.113Z,82.19
2019-02-11T21:36:37.469Z,81.92
2019-02-11T21:39:08.054Z,81.17
2019-02-11T21:41:38.476Z,82.01
2019-02-11T21:44:09.013Z,81.97
2019-02-11T21:46:39.388Z,83.05
2019-02-11T21:49:10.032Z,85.22
2019-02-11T21:51:40.685Z,87.47
2019-02-11T21:54:11.019Z,88.43
2019-02-11T21:56:41.886Z,88.16
2019-02-11T21:59:12.100Z,88.59
2019-02-11T22:01:42.483Z,88.07
2019-02-11T22:04:13.253Z,87.69
2019-02-11T22:06:43.506Z,87.97
2019-02-11T22:09:13.779Z,87.44
2019-02-11T22:11:44.809Z,87.38
2019-02-11T22:14:15.402Z,86.92
2019-02-11T22:16:45.651Z,86.77
2019-02-11T22:19:16.367Z,86.38
2019-02-11T22:21:46.808Z,86.91
2019-02-11T22:24:17.283Z,87.83
2019-02-11T22:26:48.057Z,88.38
2019-02-11T22:29:18.436Z,88.74
2019-02-11T22:31:49.130Z,89.11
2019-02-11T22:34:19.383Z,89.29
2019-02-11T22:36:49.692Z,89.65
2019-02-11T22:39:20.459Z,90.04
2019-02-11T22:41:51.013Z,90.49
2019-02-11T22:44:21.401Z,90.63
2019-02-11T22:46:51.989Z,91.06
2019-02-11T22:49:22.485Z,91.42
2019-02-11T22:51:52.805Z,91.80
2019-02-11T22:54:23.341Z,91.75
2019-02-11T22:56:54.000Z,91.54
2019-02-11T22:59:24.291Z,91.06
2019-02-11T23:01:54.811Z,91.67
2019-02-11T23:04:25.055Z,91.67
2019-02-11T23:06:55.852Z,90.59
2019-02-11T23:09:26.446Z,89.79
2019-02-11T23:11:56.824Z,89.05
2019-02-11T23:14:27.781Z,88.97
2019-02-11T23:16:58.469Z,87.07
2019-02-11T23:19:29.796Z,86.92
2019-02-11T23:22:00.573Z,85.80
2019-02-11T23:24:31.136Z,83.45
2019-02-11T23:27:01.492Z,83.01
2019-02-11T23:29:31.769Z,82.28
2019-02-11T23:32:02.278Z,82.39
2019-02-11T23:34:32.622Z,81.86
2019-02-11T23:37:03.209Z,82.45
2019-02-11T23:39:33.485Z,80.99
2019-02-11T23:42:04.116Z,80.95
2019-02-11T23:44:34.862Z,80.74
2019-02-11T23:47:58.453Z,81.30
2019-02-11T23:50:28.739Z,80.88
2019-02-11T23:52:59.316Z,79.95
2019-02-11T23:55:29.567Z,78.82
2019-02-11T23:57:59.872Z,77.96
